Time;durP1;ratioP1;P1;durP2;ratioP2;P2;SDS_P1;SDS_P2;PMS_P1;PMS_P2;Temp;Humidity;BMP_temperature;BMP_pressure;BME280_temperature;BME280_humidity;BME280_pressure;Samples;Min_cycle;Max_cycle;Signal;HPM_P1;HPM_P2
2022/09/03 00:05:28;;;;;;;1.55;1.00;;;;;;;23.75;33.85;100912.91;16216300;19;129469;-62
2022/09/03 00:11:12;;;;;;;2.17;1.20;;;;;;;23.76;34.17;100909.00;16215227;19;128411;-61
2022/09/03 00:16:48;;;;;;;1.98;1.20;;;;;;;23.75;34.02;100900.91;16216196;19;128843;-61
2022/09/03 00:22:27;;;;;;;2.15;1.23;;;;;;;23.76;33.69;100896.97;16210822;19;129103;-61
2022/09/03 00:27:54;;;;;;;4.43;1.13;;;;;;;23.74;33.96;100899.25;16214302;19;128715;-62
2022/09/03 00:33:27;;;;;;;1.73;1.05;;;;;;;23.73;33.55;100897.56;16210124;19;130395;-61
2022/09/03 00:38:50;;;;;;;3.53;1.15;;;;;;;23.73;33.93;100903.97;16160491;19;130160;-61
2022/09/03 00:44:33;;;;;;;1.20;1.05;;;;;;;23.72;33.64;100891.13;16152424;19;129434;-61
2022/09/03 00:50:23;;;;;;;3.80;1.27;;;;;;;23.71;33.85;100888.63;16153144;19;130017;-61
2022/09/03 00:55:46;;;;;;;4.07;1.20;;;;;;;23.69;33.90;100890.84;16161103;19;129093;-61
2022/09/03 01:01:46;;;;;;;2.50;0.90;;;;;;;23.69;34.04;100896.44;16153591;19;129138;-61
2022/09/03 01:07:33;;;;;;;4.10;1.25;;;;;;;23.68;34.18;100889.19;16158254;19;129179;-61
2022/09/03 01:13:00;;;;;;;;;;;;;;;23.64;34.03;100889.72;16159050;19;130060;-61
2022/09/03 01:18:57;;;;;;;1.58;0.98;;;;;;;23.65;34.18;100891.41;16160873;19;130938;-61
2022/09/03 01:24:43;;;;;;;1.80;1.03;;;;;;;23.65;34.20;100897.00;16143397;19;129031;-61
2022/09/03 01:30:22;;;;;;;1.58;0.90;;;;;;;23.64;34.10;100900.09;16144667;19;130583;-61
2022/09/03 01:35:47;;;;;;;2.28;1.00;;;;;;;23.62;33.80;100896.72;16144247;19;129629;-61
2022/09/03 01:47:20;;;;;;;1.60;1.13;;;;;;;23.61;33.78;100901.50;16139762;19;129498;-61
2022/09/03 01:52:58;;;;;;;2.13;1.08;;;;;;;23.61;34.14;100895.91;16142682;19;130305;-61
2022/09/03 01:58:32;;;;;;;3.00;0.90;;;;;;;23.60;34.54;100899.81;16138000;19;130925;-61
2022/09/03 02:03:58;;;;;;;1.38;1.00;;;;;;;23.58;34.18;100895.56;16139406;19;129914;-61
2022/09/03 02:09:20;;;;;;;1.70;0.90;;;;;;;23.58;33.88;100896.47;16143192;19;130116;-61
2022/09/03 02:14:45;;;;;;;2.43;1.00;;;;;;;23.58;34.08;100898.38;16139387;19;130415;-61
2022/09/03 02:20:10;;;;;;;1.42;1.00;;;;;;;23.59;34.15;100897.28;16143580;19;129269;-61
2022/09/03 02:25:36;;;;;;;1.75;0.93;;;;;;;23.57;34.21;100891.97;16137391;19;129745;-62
2022/09/03 02:30:58;;;;;;;1.88;1.08;;;;;;;23.55;34.31;100891.41;16140728;19;130225;-61
2022/09/03 02:36:28;;;;;;;5.03;1.33;;;;;;;23.57;34.05;100889.16;16140174;19;129376;-62
2022/09/03 02:41:54;;;;;;;2.50;1.13;;;;;;;23.55;34.18;100882.19;16137499;19;129001;-61
2022/09/03 02:47:19;;;;;;;2.83;1.00;;;;;;;23.54;34.65;100884.13;16137486;19;129505;-62
2022/09/03 02:52:41;;;;;;;1.40;1.00;;;;;;;23.53;34.24;100885.25;16137562;19;130146;-61
2022/09/03 02:58:05;;;;;;;1.27;0.90;;;;;;;23.53;34.24;100890.00;16132403;19;129335;-61
2022/09/03 03:03:27;;;;;;;1.40;1.00;;;;;;;23.52;34.40;100883.56;16134533;19;129080;-61
2022/09/03 03:08:49;;;;;;;1.10;1.00;;;;;;;23.51;34.50;100885.53;16137401;19;129591;-61
2022/09/03 03:14:11;;;;;;;2.58;1.08;;;;;;;23.51;34.11;100887.47;16138296;19;129276;-62
2022/09/03 03:19:33;;;;;;;3.38;1.00;;;;;;;23.50;34.47;100885.84;16138299;19;129156;-62
2022/09/03 03:24:56;;;;;;;2.15;0.95;;;;;;;23.48;34.28;100886.09;16130848;19;129199;-62
2022/09/03 03:30:18;;;;;;;1.25;0.75;;;;;;;23.49;34.52;100892.53;16136022;19;130345;-61
2022/09/03 03:35:41;;;;;;;2.60;1.10;;;;;;;23.49;34.56;100881.38;16132774;19;129585;-62
2022/09/03 03:41:09;;;;;;;1.17;0.90;;;;;;;23.48;34.60;100890.84;16136405;19;130817;-62
2022/09/03 03:46:36;;;;;;;1.67;0.88;;;;;;;23.48;34.54;100883.31;16134327;19;129911;-62
2022/09/03 03:51:58;;;;;;;1.90;1.10;;;;;;;23.47;34.63;100886.41;16136149;19;129355;-62
2022/09/03 03:57:20;;;;;;;1.33;0.93;;;;;;;23.47;34.57;100883.59;16133222;19;129705;-62
2022/09/03 04:02:42;;;;;;;2.58;0.70;;;;;;;23.45;34.42;100888.63;16132255;19;129464;-62
2022/09/03 04:08:04;;;;;;;1.15;0.80;;;;;;;23.45;34.68;100885.81;16146517;19;129640;-62
2022/09/03 04:13:34;;;;;;;2.95;1.10;;;;;;;23.45;34.37;100885.81;16145425;19;129083;-62
2022/09/03 04:18:56;;;;;;;1.10;0.80;;;;;;;23.44;34.81;100887.81;16149714;19;129687;-62
2022/09/03 04:24:17;;;;;;;1.30;0.80;;;;;;;23.43;35.00;100888.91;16143581;19;130087;-62
2022/09/03 04:29:39;;;;;;;1.10;0.90;;;;;;;23.43;34.54;100888.06;16148463;19;129237;-62
2022/09/03 04:35:01;;;;;;;1.05;0.75;;;;;;;23.43;34.61;100893.63;16147181;19;130167;-62
2022/09/03 04:40:23;;;;;;;1.13;0.80;;;;;;;23.43;34.43;100888.06;16144947;19;129729;-62
2022/09/03 04:45:44;;;;;;;2.38;1.05;;;;;;;23.44;34.62;100889.72;16141986;19;129582;-62
2022/09/03 04:51:18;;;;;;;1.50;0.75;;;;;;;23.42;34.44;100884.44;16147296;19;129543;-62
2022/09/03 04:56:40;;;;;;;1.33;1.10;;;;;;;23.41;34.67;100890.28;16144027;19;129694;-62
2022/09/03 05:02:02;;;;;;;1.75;1.02;;;;;;;23.41;34.69;100893.09;16143921;19;129771;-62
2022/09/03 05:07:27;;;;;;;1.50;1.00;;;;;;;23.41;34.93;100890.28;16144956;19;130316;-62
2022/09/03 05:13:03;;;;;;;1.60;0.77;;;;;;;23.40;34.56;100883.88;16144168;19;129838;-62
2022/09/03 05:18:25;;;;;;;1.23;0.90;;;;;;;23.39;34.60;100882.19;16144269;19;129325;-62
2022/09/03 05:23:51;;;;;;;4.90;1.10;;;;;;;23.40;34.96;100885.81;16142207;19;130282;-62
2022/09/03 05:29:14;;;;;;;2.90;0.90;;;;;;;23.39;34.71;100886.94;16145628;19;130668;-62
2022/09/03 05:34:36;;;;;;;1.60;1.10;;;;;;;23.38;34.57;100893.66;16143760;19;130232;-62
2022/09/03 05:39:58;;;;;;;2.67;0.90;;;;;;;23.38;34.66;100893.66;16144990;19;129444;-62
2022/09/03 05:45:20;;;;;;;1.73;1.02;;;;;;;23.37;34.74;100892.81;16141586;19;128927;-62
2022/09/03 05:50:41;;;;;;;1.65;0.80;;;;;;;23.36;34.76;100888.34;16144432;19;132234;-62
2022/09/03 05:56:11;;;;;;;1.83;1.20;;;;;;;23.36;34.74;100893.94;16142494;19;130633;-62
2022/09/03 06:01:41;;;;;;;3.20;0.98;;;;;;;23.38;34.58;100902.03;16141659;19;129906;-62
2022/09/03 06:07:11;;;;;;;1.13;0.80;;;;;;;23.34;34.41;100902.59;16143301;19;129158;-62
2022/09/03 06:12:34;;;;;;;1.10;0.80;;;;;;;23.34;34.66;100907.31;16136400;19;129712;-62
2022/09/03 06:17:56;;;;;;;2.40;1.00;;;;;;;23.32;34.54;100899.22;16141392;19;129301;-62
2022/09/03 06:23:19;;;;;;;1.30;0.85;;;;;;;23.33;35.21;100906.50;16139196;19;129194;-63
2022/09/03 06:28:45;;;;;;;1.27;0.90;;;;;;;23.32;35.29;100902.03;16137831;19;129490;-63
2022/09/03 06:34:07;;;;;;;3.50;0.95;;;;;;;23.32;35.24;100904.00;16141062;19;129525;-63
2022/09/03 06:39:29;;;;;;;3.08;0.88;;;;;;;23.31;34.68;100911.50;16138984;19;129416;-63
2022/09/03 06:44:51;;;;;;;1.70;0.90;;;;;;;23.31;34.78;100911.50;16136360;19;129697;-63
2022/09/03 06:50:13;;;;;;;2.15;1.02;;;;;;;23.29;34.99;100916.53;16133804;19;129279;-62
2022/09/03 06:55:38;;;;;;;2.15;0.80;;;;;;;23.30;34.96;100923.78;16139857;19;130064;-63
2022/09/03 07:01:05;;;;;;;1.80;0.80;;;;;;;23.33;34.96;100917.66;16133132;19;129386;-63
2022/09/03 07:06:31;;;;;;;9.23;0.98;;;;;;;23.37;34.78;100917.94;16132978;19;129554;-63
2022/09/03 07:11:53;;;;;;;4.07;0.88;;;;;;;23.42;34.69;100936.63;16139928;19;128999;-63
2022/09/03 07:17:14;;;;;;;5.25;0.98;;;;;;;23.51;34.68;100930.22;16137831;19;129574;-66
2022/09/03 07:22:36;;;;;;;4.53;0.98;;;;;;;23.58;34.62;100941.13;16136766;19;129741;-66
2022/09/03 07:27:58;;;;;;;5.28;1.63;;;;;;;23.64;34.33;100939.19;16134985;19;128967;-66
2022/09/03 07:33:20;;;;;;;6.18;1.25;;;;;;;23.66;33.83;100936.94;16133604;19;130498;-66
2022/09/03 07:38:43;;;;;;;7.43;1.20;;;;;;;23.70;33.91;100937.22;16136238;19;129255;-66
2022/09/03 07:44:07;;;;;;;5.20;1.38;;;;;;;23.72;33.67;100935.81;16148700;19;129622;-66
2022/09/03 07:49:29;;;;;;;5.85;1.20;;;;;;;23.75;33.87;100952.03;16147068;19;129117;-66
2022/09/03 07:54:51;;;;;;;5.15;1.35;;;;;;;23.75;33.69;100954.81;16148907;19;129182;-67
2022/09/03 08:00:13;;;;;;;3.55;1.50;;;;;;;23.76;33.16;100952.84;16146568;19;132445;-66
2022/09/03 08:05:35;;;;;;;6.13;1.40;;;;;;;23.78;33.41;100953.41;16145394;19;129228;-66
2022/09/03 08:11:12;;;;;;;3.42;1.00;;;;;;;23.83;33.01;100947.81;16146674;19;129484;-66
2022/09/03 08:16:40;;;;;;;6.32;1.27;;;;;;;23.86;32.94;100944.47;16146423;19;129985;-66
2022/09/03 08:22:02;;;;;;;4.13;1.30;;;;;;;23.94;32.91;100949.47;16144685;19;129467;-65
2022/09/03 08:27:24;;;;;;;6.57;1.48;;;;;;;24.04;32.97;100953.38;16146483;19;133141;-66
2022/09/03 08:32:46;;;;;;;3.72;1.48;;;;;;;24.08;32.78;100948.88;16058058;19;130516;-67
2022/09/03 08:38:08;;;;;;;5.32;1.30;;;;;;;24.14;32.76;100953.34;16031089;19;130987;-62
2022/09/03 08:43:46;;;;;;;7.50;1.30;;;;;;;24.15;32.94;100957.81;16142250;19;130171;-62
2022/09/03 08:49:12;;;;;;;6.40;1.50;;;;;;;24.18;32.84;100962.84;16139784;19;130824;-72
2022/09/03 08:54:36;;;;;;;5.18;1.33;;;;;;;24.19;32.92;100958.91;16147030;19;129824;-62
2022/09/03 08:59:59;;;;;;;10.90;1.20;;;;;;;24.17;32.98;100961.16;16143403;19;129116;-65
2022/09/03 09:05:31;;;;;;;4.72;1.13;;;;;;;24.19;32.90;100978.47;16144563;19;130609;-62
2022/09/03 09:11:07;;;;;;;8.43;1.20;;;;;;;24.19;32.86;100966.44;16144137;19;129469;-60
2022/09/03 09:16:40;;;;;;;3.63;1.30;;;;;;;24.18;33.44;100976.81;16147578;19;129895;-62
2022/09/03 09:22:09;;;;;;;6.35;1.17;;;;;;;24.17;32.92;100980.72;16145151;19;129764;-63
2022/09/03 09:27:31;;;;;;;6.18;1.40;;;;;;;24.16;33.04;100967.03;16142145;19;128886;-65
2022/09/03 09:32:54;;;;;;;3.58;1.35;;;;;;;24.14;33.48;100972.91;16145595;19;129339;-66
2022/09/03 09:38:28;;;;;;;5.97;1.30;;;;;;;24.13;33.26;100976.81;16145261;19;129988;-66
2022/09/03 09:44:01;;;;;;;4.40;1.27;;;;;;;24.10;33.30;100975.44;16145362;19;129127;-67
2022/09/03 09:49:32;;;;;;;5.40;1.13;;;;;;;24.07;33.62;100977.97;16141387;19;129343;-67
2022/09/03 09:55:13;;;;;;;8.23;1.40;;;;;;;24.04;33.31;100987.75;16146453;19;129221;-66
2022/09/03 10:00:36;;;;;;;4.43;1.30;;;;;;;23.99;33.14;100984.13;16140656;19;129442;-66
2022/09/03 10:06:52;;;;;;;4.80;1.33;;;;;;;24.01;33.25;100981.88;16138288;19;129586;-67
2022/09/03 10:11:50;;;;;;;6.30;1.52;;;;;;;23.99;33.26;100967.38;16144504;19;130255;-66
2022/09/03 10:17:38;;;;;;;12.98;1.80;;;;;;;24.00;33.44;100974.63;16144922;19;128962;-67
2022/09/03 10:23:03;;;;;;;11.00;2.10;;;;;;;24.00;33.40;100969.03;16143784;19;129684;-67
2022/09/03 10:28:27;;;;;;;11.90;2.20;;;;;;;24.03;33.91;100965.66;16144213;19;129367;-67
2022/09/03 10:33:59;;;;;;;7.85;2.08;;;;;;;24.08;34.16;100965.66;16144641;19;128959;-67
2022/09/03 10:39:30;;;;;;;12.45;2.15;;;;;;;24.10;34.09;100969.00;16143039;19;130149;-67
2022/09/03 10:45:18;;;;;;;4.22;2.05;;;;;;;24.12;34.53;100975.16;16138728;19;129785;-67
2022/09/03 10:50:58;;;;;;;6.50;1.70;;;;;;;24.18;35.17;100978.78;16141647;19;130209;-68
2022/09/03 10:56:28;;;;;;;9.45;2.28;;;;;;;24.23;35.19;100971.22;16140683;19;129329;-69
2022/09/03 11:02:05;;;;;;;11.48;2.72;;;;;;;24.22;35.28;100977.06;16135694;19;129441;-65
2022/09/03 11:07:36;;;;;;;10.65;2.10;;;;;;;24.25;35.78;100966.19;16136103;19;129577;-62
2022/09/03 11:13:07;;;;;;;14.10;2.35;;;;;;;24.29;35.98;100965.63;16142482;19;129415;-67
2022/09/03 11:19:06;;;;;;;7.60;1.77;;;;;;;24.29;36.35;100969.28;16140773;19;130055;-62
2022/09/03 11:24:32;;;;;;;7.18;1.90;;;;;;;24.31;36.32;100963.38;16055259;19;131013;-66
2022/09/03 11:30:02;;;;;;;10.20;1.90;;;;;;;24.33;36.24;100964.78;16052986;19;130068;-66
2022/09/03 11:35:27;;;;;;;8.23;2.20;;;;;;;24.34;36.55;100951.66;16049992;19;130263;-67
2022/09/03 11:40:58;;;;;;;4.05;1.70;;;;;;;24.35;36.38;100936.53;16108214;19;130784;-66
2022/09/03 11:46:20;;;;;;;4.13;2.03;;;;;;;24.33;36.56;100936.00;16137886;19;129778;-55
2022/09/03 11:51:42;;;;;;;8.88;1.95;;;;;;;24.34;36.59;100937.66;16141503;19;129193;-68
2022/09/03 11:57:13;;;;;;;7.90;2.65;;;;;;;24.36;36.69;100927.03;16138396;19;129706;-66
2022/09/03 12:02:37;;;;;;;6.75;2.55;;;;;;;24.36;36.67;100932.63;16133839;19;128919;-67
2022/09/03 12:08:08;;;;;;;7.03;2.10;;;;;;;24.36;36.80;100927.03;16133856;19;129197;-66
2022/09/03 12:13:45;;;;;;;2.80;1.77;;;;;;;24.38;36.44;100921.97;16139381;19;129229;-67
2022/09/03 12:19:21;;;;;;;4.03;1.90;;;;;;;24.39;36.42;100920.84;16138084;19;129733;-67
2022/09/03 12:24:43;;;;;;;;;;;;;;;24.36;36.61;100927.03;16137230;19;129404;-66
2022/09/03 12:30:15;;;;;;;4.97;2.22;;;;;;;24.39;36.56;100924.50;16153764;19;129637;-64
2022/09/03 12:35:37;;;;;;;7.10;1.77;;;;;;;24.37;36.37;100929.53;16153177;19;129097;-66
2022/09/03 12:41:30;;;;;;;3.25;1.45;;;;;;;24.38;36.60;100924.75;16153061;19;128936;-66
2022/09/03 12:47:20;;;;;;;4.30;1.77;;;;;;;24.38;36.56;100924.75;16148175;19;129483;-66
2022/09/03 12:53:02;;;;;;;3.55;1.80;;;;;;;24.37;36.26;100925.91;16150234;19;129124;-66
2022/09/03 12:58:30;;;;;;;4.75;1.98;;;;;;;24.36;36.64;100922.25;16151367;19;129040;-67
2022/09/03 13:03:58;;;;;;;19.48;2.38;;;;;;;24.36;36.51;100927.03;16152072;19;131925;-66
2022/09/03 13:09:23;;;;;;;3.30;2.00;;;;;;;24.36;36.54;100921.44;16149595;19;129806;-66
2022/09/03 13:14:48;;;;;;;3.40;2.10;;;;;;;24.35;36.68;100926.19;16149011;19;130382;-66
2022/09/03 13:20:28;;;;;;;2.17;1.77;;;;;;;24.35;36.65;100931.78;16149712;19;129087;-66
2022/09/03 13:26:04;;;;;;;4.95;1.92;;;;;;;24.34;36.31;100929.28;16147982;19;129253;-66
2022/09/03 13:31:34;;;;;;;4.43;1.98;;;;;;;24.33;36.46;100922.84;16148266;19;129397;-66
2022/09/03 13:37:21;;;;;;;3.65;2.00;;;;;;;24.34;36.34;100915.28;16147301;19;129439;-66
2022/09/03 13:43:31;;;;;;;3.22;1.70;;;;;;;24.33;36.46;100922.00;16147206;19;128910;-66
2022/09/03 13:54:48;;;;;;;3.63;1.85;;;;;;;24.33;36.72;100916.41;16148990;19;130381;-66
2022/09/03 14:00:23;;;;;;;3.80;1.90;;;;;;;24.34;36.62;100923.69;16145540;19;131046;-66
2022/09/03 14:06:04;;;;;;;;;;;;;;;24.29;36.53;100921.75;16144203;19;129165;-66
2022/09/03 14:11:25;;;;;;;3.97;2.25;;;;;;;24.31;36.39;100930.66;16146120;19;130564;-66
2022/09/03 14:16:58;;;;;;;2.47;1.77;;;;;;;24.31;36.52;100939.06;16145613;19;129416;-66
2022/09/03 14:22:28;;;;;;;2.17;1.95;;;;;;;24.31;36.73;100936.25;16141224;19;131545;-67
2022/09/03 14:27:50;;;;;;;3.80;2.03;;;;;;;24.32;36.92;100931.50;16138648;19;129024;-66
2022/09/03 14:33:32;;;;;;;6.30;2.53;;;;;;;24.34;36.83;100929.28;16146208;19;129713;-66
2022/09/03 14:39:18;;;;;;;7.75;2.22;;;;;;;24.36;37.14;100924.25;16136486;19;128785;-66
2022/09/03 14:44:44;;;;;;;6.82;2.38;;;;;;;24.35;37.29;100919.78;16141756;19;129383;-66
2022/09/03 14:50:26;;;;;;;6.82;2.53;;;;;;;24.38;38.12;100922.81;16135495;19;129427;-66
2022/09/03 14:56:07;;;;;;;7.10;2.25;;;;;;;24.41;38.68;100918.59;16142816;19;129427;-66
2022/09/03 15:01:34;;;;;;;5.88;2.40;;;;;;;24.42;38.63;100931.47;16136832;19;129675;-66
2022/09/03 15:07:29;;;;;;;7.60;2.22;;;;;;;24.45;38.53;100925.31;16137773;19;129592;-65
2022/09/03 15:13:07;;;;;;;9.82;1.98;;;;;;;24.46;38.72;100927.00;16140015;19;129381;-67
2022/09/03 15:18:41;;;;;;;11.05;2.10;;;;;;;24.47;38.84;100931.47;16139715;19;130045;-66
2022/09/03 15:24:18;;;;;;;12.50;2.35;;;;;;;24.48;38.77;100933.13;16142217;19;129801;-66
2022/09/03 15:30:00;;;;;;;6.22;2.45;;;;;;;24.50;38.70;100928.06;16139984;19;129329;-66
2022/09/03 15:35:44;;;;;;;8.70;2.53;;;;;;;24.49;38.71;100932.00;16140801;19;129013;-66
2022/09/03 15:41:39;;;;;;;10.13;2.53;;;;;;;24.46;38.59;100938.19;16140366;19;130060;-66
2022/09/03 15:47:06;;;;;;;5.97;2.60;;;;;;;24.45;38.50;100941.25;16137210;19;129680;-66
2022/09/03 15:52:57;;;;;;;5.10;2.15;;;;;;;24.43;38.84;100933.16;16135660;19;129870;-66
2022/09/03 15:58:33;;;;;;;8.60;2.40;;;;;;;24.41;38.18;100941.84;16135726;19;129656;-66
2022/09/03 16:04:08;;;;;;;6.27;2.30;;;;;;;24.41;38.39;100935.38;16150723;19;129615;-66
2022/09/03 16:09:39;;;;;;;6.35;2.55;;;;;;;24.38;38.34;100941.53;16153516;19;132619;-66
2022/09/03 16:15:14;;;;;;;7.00;1.85;;;;;;;24.38;38.41;100947.13;16153122;19;129445;-66
2022/09/03 16:21:19;;;;;;;5.10;1.80;;;;;;;24.37;38.40;100956.69;16150735;19;129100;-66
2022/09/03 16:27:02;;;;;;;8.55;2.03;;;;;;;24.34;38.69;100949.66;16143405;19;130460;-67
2022/09/03 16:32:45;;;;;;;4.70;1.92;;;;;;;24.33;38.67;100955.56;16146869;19;128995;-66
2022/09/03 16:38:29;;;;;;;4.25;1.85;;;;;;;24.32;38.84;100954.69;16149562;19;130437;-67
2022/09/03 16:44:37;;;;;;;6.57;2.08;;;;;;;24.30;38.82;100961.72;16152643;19;129346;-66
2022/09/03 16:50:39;;;;;;;4.85;2.08;;;;;;;24.30;38.71;100967.31;16144260;19;131740;-66
2022/09/03 16:56:06;;;;;;;10.27;2.63;;;;;;;24.26;38.78;100972.63;16151101;19;129438;-67
2022/09/03 17:02:00;;;;;;;5.50;1.85;;;;;;;24.26;39.12;100975.44;16145890;19;130449;-67
2022/09/03 17:08:04;;;;;;;6.20;2.17;;;;;;;24.25;39.06;100971.78;16145109;19;128829;-66
2022/09/03 17:14:00;;;;;;;5.28;1.90;;;;;;;24.25;38.91;100976.53;16131606;19;130894;-67
2022/09/03 17:19:30;;;;;;;5.10;2.17;;;;;;;24.24;39.09;100988.81;16139839;19;129997;-66
2022/09/03 17:25:02;;;;;;;4.35;2.08;;;;;;;24.21;38.81;100981.84;16136984;19;129285;-67
2022/09/03 17:30:45;;;;;;;6.88;2.22;;;;;;;24.22;38.96;100989.09;16136574;19;130710;-66
2022/09/03 17:36:07;;;;;;;5.65;2.10;;;;;;;24.21;39.24;101008.94;16140109;19;129052;-66
2022/09/03 17:42:14;;;;;;;7.57;1.95;;;;;;;24.22;38.96;101007.81;16139672;19;129344;-67
2022/09/03 17:48:02;;;;;;;4.03;1.95;;;;;;;24.21;38.88;101015.38;16136263;19;130573;-67
2022/09/03 17:53:37;;;;;;;9.55;2.22;;;;;;;24.20;38.97;101019.28;16140453;19;129053;-67
2022/09/03 17:59:15;;;;;;;23.00;3.03;;;;;;;24.22;39.06;101022.66;16145340;19;128906;-67
2022/09/03 18:04:53;;;;;;;8.95;2.10;;;;;;;24.24;38.85;101047.53;16145376;19;129438;-67
2022/09/03 18:10:37;;;;;;;11.45;2.20;;;;;;;24.20;39.11;101044.47;16143696;19;128951;-67
2022/09/03 18:16:10;;;;;;;13.20;2.70;;;;;;;24.21;39.18;101045.28;16142818;19;129483;-67
2022/09/03 20:15:43;;;;;;;24.02;2.95;;;;;;;24.50;41.47;101171.38;16149859;19;129269;-61
2022/09/03 20:21:17;;;;;;;12.75;2.72;;;;;;;24.56;41.76;101166.63;16151870;19;130265;-61
2022/09/03 20:26:49;;;;;;;15.25;3.20;;;;;;;24.55;41.41;101160.19;16146643;19;130649;-67
2022/09/03 20:32:45;;;;;;;14.50;3.17;;;;;;;24.56;41.74;101164.66;16149482;19;129494;-59
2022/09/03 20:38:06;;;;;;;13.90;2.55;;;;;;;24.55;41.47;101165.78;16148302;19;129264;-56
2022/09/03 20:43:46;;;;;;;22.75;3.55;;;;;;;24.58;41.41;101165.25;16147854;19;128992;-58
2022/09/03 20:49:47;;;;;;;17.83;3.13;;;;;;;24.57;41.46;101183.13;16143758;19;129338;-68
2022/09/03 20:55:20;;;;;;;6.78;2.35;;;;;;;24.60;41.35;101183.69;16148294;19;129511;-68
2022/09/03 21:00:48;;;;;;;6.97;2.42;;;;;;;24.57;41.46;101180.34;16146924;19;129957;-58
2022/09/03 21:06:30;;;;;;;10.77;2.20;;;;;;;24.58;41.08;101190.41;16146044;19;129591;-67
2022/09/03 21:12:13;;;;;;;9.18;2.58;;;;;;;24.57;41.39;101185.06;16215364;19;129214;-65
2022/09/03 21:17:41;;;;;;;12.43;2.47;;;;;;;24.56;41.33;101205.78;16227188;19;129564;-65
2022/09/03 21:23:27;;;;;;;8.02;2.25;;;;;;;24.55;41.10;101193.75;16227815;19;128289;-65
2022/09/03 21:28:54;;;;;;;6.75;2.30;;;;;;;24.50;40.90;101196.53;16224146;19;128242;-65
2022/09/03 21:34:38;;;;;;;7.07;2.10;;;;;;;24.47;40.89;101205.53;16228029;19;129267;-65
2022/09/03 21:40:00;;;;;;;5.90;2.22;;;;;;;24.43;40.69;101199.63;16228141;19;129578;-64
2022/09/03 21:45:50;;;;;;;6.47;2.00;;;;;;;24.41;41.01;101203.81;16224969;19;128181;-64
2022/09/03 21:51:20;;;;;;;6.15;1.80;;;;;;;24.36;41.22;101201.88;16224771;19;128153;-65
2022/09/03 21:57:03;;;;;;;5.20;2.17;;;;;;;24.34;40.94;101208.88;16226340;19;128741;-65
2022/09/03 22:02:31;;;;;;;12.75;2.22;;;;;;;24.32;40.70;101209.13;16219156;19;129125;-65
2022/09/03 22:08:17;;;;;;;11.07;2.15;;;;;;;24.32;40.72;101216.69;16222944;19;127758;-65
2022/09/03 22:13:59;;;;;;;5.35;1.88;;;;;;;24.30;40.66;101224.50;16225617;19;129230;-65
2022/09/03 22:19:22;;;;;;;4.53;1.70;;;;;;;24.24;40.67;101216.13;16226189;19;129267;-65
2022/09/03 22:25:00;;;;;;;4.70;2.00;;;;;;;24.25;40.75;101220.59;16220655;19;127666;-65
2022/09/03 22:30:22;;;;;;;5.53;1.98;;;;;;;24.21;40.34;101219.44;16220066;19;130572;-65
2022/09/03 22:35:53;;;;;;;4.05;1.88;;;;;;;24.21;40.84;101213.88;16149818;19;130088;-64
2022/09/03 22:41:56;;;;;;;6.65;1.95;;;;;;;24.17;40.90;101215.53;16139390;19;129517;-64
2022/09/03 22:47:27;;;;;;;5.25;2.10;;;;;;;24.17;40.64;101215.53;16127825;19;129356;-64
2022/09/03 22:53:10;;;;;;;6.07;2.00;;;;;;;24.16;40.92;101221.41;16128370;19;129268;-65
2022/09/03 22:58:43;;;;;;;5.72;2.13;;;;;;;24.12;41.07;101221.94;16131817;19;129524;-65
2022/09/03 23:04:33;;;;;;;4.47;1.70;;;;;;;24.13;40.59;101225.56;16128382;19;129707;-63
2022/09/03 23:10:00;;;;;;;9.27;2.03;;;;;;;24.15;40.44;101234.53;16127471;19;130228;-64
2022/09/03 23:15:29;;;;;;;5.32;2.03;;;;;;;24.17;40.53;101231.47;16134030;19;129752;-65
2022/09/03 23:21:04;;;;;;;3.92;1.98;;;;;;;24.20;40.74;101240.13;16142532;19;129518;-67
2022/09/03 23:26:47;;;;;;;5.78;1.83;;;;;;;24.21;40.54;101235.38;16141062;19;129817;-64
2022/09/03 23:32:09;;;;;;;4.03;1.92;;;;;;;24.21;40.63;101247.41;16139060;19;129434;-60
2022/09/03 23:37:45;;;;;;;5.63;1.70;;;;;;;24.25;40.54;101244.91;16140288;19;128909;-67
2022/09/03 23:43:41;;;;;;;2.78;2.00;;;;;;;24.25;40.45;101239.34;16135938;19;130218;-64
2022/09/03 23:49:27;;;;;;;5.10;1.90;;;;;;;24.26;40.74;101257.78;16135142;19;129573;-74
2022/09/03 23:55:23;;;;;;;4.65;1.70;;;;;;;24.27;40.22;101254.69;16139407;19;129531;-71
